sensor_id;sensor_type;location;lat;lon;timestamp;temperature;humidity
26803;DHT22;14378;51.796;5.808;2022-08-21T00:03:15;16.70;99.90
26803;DHT22;14378;51.796;5.808;2022-08-21T00:05:16;16.70;99.90
26803;DHT22;14378;51.796;5.808;2022-08-21T00:07:18;16.60;99.90
26803;DHT22;14378;51.796;5.808;2022-08-21T00:09:20;16.60;99.90
26803;DHT22;14378;51.796;5.808;2022-08-21T00:11:21;16.60;99.90
26803;DHT22;14378;51.796;5.808;2022-08-21T00:13:22;16.50;99.90
26803;DHT22;14378;51.796;5.808;2022-08-21T00:15:27;16.50;99.90
26803;DHT22;14378;51.796;5.808;2022-08-21T00:17:28;16.50;99.90
26803;DHT22;14378;51.796;5.808;2022-08-21T00:19:30;16.50;99.90
26803;DHT22;14378;51.796;5.808;2022-08-21T00:21:32;16.50;99.90
26803;DHT22;14378;51.796;5.808;2022-08-21T00:23:34;16.50;99.90
26803;DHT22;14378;51.796;5.808;2022-08-21T00:25:36;16.50;99.90
26803;DHT22;14378;51.796;5.808;2022-08-21T00:27:40;16.40;99.90
26803;DHT22;14378;51.796;5.808;2022-08-21T00:29:43;16.40;99.90
26803;DHT22;14378;51.796;5.808;2022-08-21T00:31:44;16.30;99.90
26803;DHT22;14378;51.796;5.808;2022-08-21T00:33:45;16.30;99.90
26803;DHT22;14378;51.796;5.808;2022-08-21T00:35:46;16.30;99.90
26803;DHT22;14378;51.796;5.808;2022-08-21T00:37:47;16.30;99.90
26803;DHT22;14378;51.796;5.808;2022-08-21T00:39:48;16.20;99.90
26803;DHT22;14378;51.796;5.808;2022-08-21T00:41:49;16.20;99.90
26803;DHT22;14378;51.796;5.808;2022-08-21T00:43:51;16.20;99.90
26803;DHT22;14378;51.796;5.808;2022-08-21T00:45:52;16.20;99.90
26803;DHT22;14378;51.796;5.808;2022-08-21T00:47:54;16.20;99.90
26803;DHT22;14378;51.796;5.808;2022-08-21T00:49:55;16.20;99.90
26803;DHT22;14378;51.796;5.808;2022-08-21T00:51:59;16.20;99.90
26803;DHT22;14378;51.796;5.808;2022-08-21T00:54:06;16.20;99.90
26803;DHT22;14378;51.796;5.808;2022-08-21T00:56:09;16.20;99.90
26803;DHT22;14378;51.796;5.808;2022-08-21T00:58:12;16.20;99.90
26803;DHT22;14378;51.796;5.808;2022-08-21T01:00:19;16.10;99.90
26803;DHT22;14378;51.796;5.808;2022-08-21T01:02:21;16.10;99.90
26803;DHT22;14378;51.796;5.808;2022-08-21T01:04:23;16.10;99.90
26803;DHT22;14378;51.796;5.808;2022-08-21T01:06:24;16.10;99.90
26803;DHT22;14378;51.796;5.808;2022-08-21T01:08:25;16.10;99.90
26803;DHT22;14378;51.796;5.808;2022-08-21T01:10:29;16.10;99.90
26803;DHT22;14378;51.796;5.808;2022-08-21T01:12:32;16.10;99.90
26803;DHT22;14378;51.796;5.808;2022-08-21T01:14:33;16.00;99.90
26803;DHT22;14378;51.796;5.808;2022-08-21T01:16:34;16.00;99.90
26803;DHT22;14378;51.796;5.808;2022-08-21T01:18:36;16.00;99.90
26803;DHT22;14378;51.796;5.808;2022-08-21T01:20:40;16.00;99.90
26803;DHT22;14378;51.796;5.808;2022-08-21T01:22:41;16.00;99.90
26803;DHT22;14378;51.796;5.808;2022-08-21T01:24:43;16.00;99.90
26803;DHT22;14378;51.796;5.808;2022-08-21T01:26:44;15.90;99.90
26803;DHT22;14378;51.796;5.808;2022-08-21T01:31:13;15.80;99.90
26803;DHT22;14378;51.796;5.808;2022-08-21T01:33:16;15.80;99.90
26803;DHT22;14378;51.796;5.808;2022-08-21T01:35:18;15.80;99.90
26803;DHT22;14378;51.796;5.808;2022-08-21T01:37:24;15.80;99.90
26803;DHT22;14378;51.796;5.808;2022-08-21T01:39:25;15.80;99.90
26803;DHT22;14378;51.796;5.808;2022-08-21T01:41:26;15.80;99.90
26803;DHT22;14378;51.796;5.808;2022-08-21T01:43:27;15.80;99.90
26803;DHT22;14378;51.796;5.808;2022-08-21T01:45:28;15.80;99.90
26803;DHT22;14378;51.796;5.808;2022-08-21T01:47:29;15.70;99.90
26803;DHT22;14378;51.796;5.808;2022-08-21T01:49:33;15.70;99.90
26803;DHT22;14378;51.796;5.808;2022-08-21T01:51:35;15.70;99.90
26803;DHT22;14378;51.796;5.808;2022-08-21T01:53:36;15.70;99.90
26803;DHT22;14378;51.796;5.808;2022-08-21T01:55:37;15.70;99.90
26803;DHT22;14378;51.796;5.808;2022-08-21T01:57:38;15.70;99.90
26803;DHT22;14378;51.796;5.808;2022-08-21T01:59:39;15.60;99.90
26803;DHT22;14378;51.796;5.808;2022-08-21T02:01:43;15.60;99.90
26803;DHT22;14378;51.796;5.808;2022-08-21T02:03:44;15.60;99.90
26803;DHT22;14378;51.796;5.808;2022-08-21T02:05:45;15.60;99.90
26803;DHT22;14378;51.796;5.808;2022-08-21T02:07:51;15.60;99.90
26803;DHT22;14378;51.796;5.808;2022-08-21T02:09:52;15.60;99.90
26803;DHT22;14378;51.796;5.808;2022-08-21T02:11:53;15.60;99.90
26803;DHT22;14378;51.796;5.808;2022-08-21T02:13:55;15.60;99.90
26803;DHT22;14378;51.796;5.808;2022-08-21T02:15:56;15.60;99.90
26803;DHT22;14378;51.796;5.808;2022-08-21T02:18:00;15.50;99.90
26803;DHT22;14378;51.796;5.808;2022-08-21T02:20:03;15.50;99.90
26803;DHT22;14378;51.796;5.808;2022-08-21T02:22:05;15.50;99.90
26803;DHT22;14378;51.796;5.808;2022-08-21T02:24:07;15.50;99.90
26803;DHT22;14378;51.796;5.808;2022-08-21T02:26:11;15.40;99.90
26803;DHT22;14378;51.796;5.808;2022-08-21T02:28:13;15.40;99.90
26803;DHT22;14378;51.796;5.808;2022-08-21T02:30:29;15.40;99.90
26803;DHT22;14378;51.796;5.808;2022-08-21T02:32:33;15.40;99.90
26803;DHT22;14378;51.796;5.808;2022-08-21T02:34:34;15.40;99.90
26803;DHT22;14378;51.796;5.808;2022-08-21T02:36:36;15.30;99.90
26803;DHT22;14378;51.796;5.808;2022-08-21T02:38:39;15.30;99.90
26803;DHT22;14378;51.796;5.808;2022-08-21T02:40:43;15.30;99.90
26803;DHT22;14378;51.796;5.808;2022-08-21T02:42:45;15.30;99.90
26803;DHT22;14378;51.796;5.808;2022-08-21T02:44:45;15.20;99.90
26803;DHT22;14378;51.796;5.808;2022-08-21T02:46:46;15.20;99.90
26803;DHT22;14378;51.796;5.808;2022-08-21T02:48:48;15.20;99.90
26803;DHT22;14378;51.796;5.808;2022-08-21T02:50:58;15.20;99.90
26803;DHT22;14378;51.796;5.808;2022-08-21T02:52:59;15.20;99.90
26803;DHT22;14378;51.796;5.808;2022-08-21T02:55:00;15.10;99.90
26803;DHT22;14378;51.796;5.808;2022-08-21T02:57:02;15.10;99.90
26803;DHT22;14378;51.796;5.808;2022-08-21T02:59:03;15.10;99.90
26803;DHT22;14378;51.796;5.808;2022-08-21T03:01:05;15.10;99.90
26803;DHT22;14378;51.796;5.808;2022-08-21T03:03:10;15.10;99.90
26803;DHT22;14378;51.796;5.808;2022-08-21T03:05:11;15.10;99.90
26803;DHT22;14378;51.796;5.808;2022-08-21T03:07:16;15.10;99.90
26803;DHT22;14378;51.796;5.808;2022-08-21T03:09:17;15.10;99.90
26803;DHT22;14378;51.796;5.808;2022-08-21T03:11:18;15.10;99.90
26803;DHT22;14378;51.796;5.808;2022-08-21T03:13:21;15.00;99.90
26803;DHT22;14378;51.796;5.808;2022-08-21T03:15:23;15.00;99.90
26803;DHT22;14378;51.796;5.808;2022-08-21T03:17:25;15.00;99.90
26803;DHT22;14378;51.796;5.808;2022-08-21T03:19:26;15.00;99.90
26803;DHT22;14378;51.796;5.808;2022-08-21T03:21:27;15.00;99.90
26803;DHT22;14378;51.796;5.808;2022-08-21T03:23:29;15.00;99.90
26803;DHT22;14378;51.796;5.808;2022-08-21T03:25:33;14.90;99.90
26803;DHT22;14378;51.796;5.808;2022-08-21T03:27:35;14.90;99.90
26803;DHT22;14378;51.796;5.808;2022-08-21T03:29:36;14.90;99.90
26803;DHT22;14378;51.796;5.808;2022-08-21T03:31:37;14.90;99.90
26803;DHT22;14378;51.796;5.808;2022-08-21T03:33:38;14.90;99.90
26803;DHT22;14378;51.796;5.808;2022-08-21T03:35:45;14.90;99.90
26803;DHT22;14378;51.796;5.808;2022-08-21T03:37:47;14.80;99.90
26803;DHT22;14378;51.796;5.808;2022-08-21T03:39:48;14.90;99.90
26803;DHT22;14378;51.796;5.808;2022-08-21T03:41:49;14.80;99.90
26803;DHT22;14378;51.796;5.808;2022-08-21T03:43:50;14.80;99.90
26803;DHT22;14378;51.796;5.808;2022-08-21T03:45:52;14.70;99.90
26803;DHT22;14378;51.796;5.808;2022-08-21T03:47:58;14.70;99.90
26803;DHT22;14378;51.796;5.808;2022-08-21T03:49:59;14.70;99.90
26803;DHT22;14378;51.796;5.808;2022-08-21T03:52:02;14.70;99.90
26803;DHT22;14378;51.796;5.808;2022-08-21T03:54:04;14.70;99.90
26803;DHT22;14378;51.796;5.808;2022-08-21T03:56:06;14.70;99.90
26803;DHT22;14378;51.796;5.808;2022-08-21T03:58:08;14.70;99.90
26803;DHT22;14378;51.796;5.808;2022-08-21T04:00:09;14.70;99.90
26803;DHT22;14378;51.796;5.808;2022-08-21T04:02:15;14.60;99.90
26803;DHT22;14378;51.796;5.808;2022-08-21T04:04:17;14.60;99.90
26803;DHT22;14378;51.796;5.808;2022-08-21T04:06:18;14.60;99.90
26803;DHT22;14378;51.796;5.808;2022-08-21T04:08:20;14.60;99.90
26803;DHT22;14378;51.796;5.808;2022-08-21T04:10:21;14.60;99.90
26803;DHT22;14378;51.796;5.808;2022-08-21T04:12:24;14.60;99.90
26803;DHT22;14378;51.796;5.808;2022-08-21T04:14:25;14.60;99.90
26803;DHT22;14378;51.796;5.808;2022-08-21T04:16:26;14.50;99.90
26803;DHT22;14378;51.796;5.808;2022-08-21T04:18:27;14.60;99.90
26803;DHT22;14378;51.796;5.808;2022-08-21T04:20:28;14.60;99.90
26803;DHT22;14378;51.796;5.808;2022-08-21T04:22:29;14.50;99.90
26803;DHT22;14378;51.796;5.808;2022-08-21T04:24:31;14.60;99.90
26803;DHT22;14378;51.796;5.808;2022-08-21T04:26:33;14.60;99.90
26803;DHT22;14378;51.796;5.808;2022-08-21T04:28:35;14.50;99.90
26803;DHT22;14378;51.796;5.808;2022-08-21T04:30:36;14.50;99.90
26803;DHT22;14378;51.796;5.808;2022-08-21T04:32:38;14.40;99.90
26803;DHT22;14378;51.796;5.808;2022-08-21T04:34:39;14.40;99.90
26803;DHT22;14378;51.796;5.808;2022-08-21T04:36:40;14.40;99.90
26803;DHT22;14378;51.796;5.808;2022-08-21T04:38:41;14.30;99.90
26803;DHT22;14378;51.796;5.808;2022-08-21T04:40:42;14.30;99.90
26803;DHT22;14378;51.796;5.808;2022-08-21T04:42:59;14.30;99.90
26803;DHT22;14378;51.796;5.808;2022-08-21T04:45:02;14.30;99.90
26803;DHT22;14378;51.796;5.808;2022-08-21T04:47:03;14.30;99.90
26803;DHT22;14378;51.796;5.808;2022-08-21T04:49:05;14.20;99.90
26803;DHT22;14378;51.796;5.808;2022-08-21T04:51:10;14.20;99.90
26803;DHT22;14378;51.796;5.808;2022-08-21T04:53:30;14.20;99.90
26803;DHT22;14378;51.796;5.808;2022-08-21T04:55:32;14.20;99.90
26803;DHT22;14378;51.796;5.808;2022-08-21T04:57:34;14.20;99.90
26803;DHT22;14378;51.796;5.808;2022-08-21T04:59:38;14.20;99.90
26803;DHT22;14378;51.796;5.808;2022-08-21T05:01:41;14.20;99.90
26803;DHT22;14378;51.796;5.808;2022-08-21T05:03:43;14.20;99.90
26803;DHT22;14378;51.796;5.808;2022-08-21T05:05:45;14.10;99.90
26803;DHT22;14378;51.796;5.808;2022-08-21T05:07:46;14.10;99.90
26803;DHT22;14378;51.796;5.808;2022-08-21T05:09:48;14.10;99.90
26803;DHT22;14378;51.796;5.808;2022-08-21T05:11:49;14.10;99.90
26803;DHT22;14378;51.796;5.808;2022-08-21T05:13:52;14.10;99.90
26803;DHT22;14378;51.796;5.808;2022-08-21T05:15:53;14.20;99.90
26803;DHT22;14378;51.796;5.808;2022-08-21T05:17:54;14.20;99.90
26803;DHT22;14378;51.796;5.808;2022-08-21T05:19:55;14.20;99.90
26803;DHT22;14378;51.796;5.808;2022-08-21T05:21:56;14.20;99.90
26803;DHT22;14378;51.796;5.808;2022-08-21T05:23:58;14.20;99.90
26803;DHT22;14378;51.796;5.808;2022-08-21T05:25:59;14.20;99.90
26803;DHT22;14378;51.796;5.808;2022-08-21T05:28:00;14.20;99.90
26803;DHT22;14378;51.796;5.808;2022-08-21T05:30:06;14.20;99.90
26803;DHT22;14378;51.796;5.808;2022-08-21T05:32:12;14.20;99.90
26803;DHT22;14378;51.796;5.808;2022-08-21T05:34:17;14.30;99.90
26803;DHT22;14378;51.796;5.808;2022-08-21T05:36:19;14.30;99.90
26803;DHT22;14378;51.796;5.808;2022-08-21T05:38:20;14.40;99.90
26803;DHT22;14378;51.796;5.808;2022-08-21T05:40:22;14.50;99.90
26803;DHT22;14378;51.796;5.808;2022-08-21T05:42:23;14.50;99.90
26803;DHT22;14378;51.796;5.808;2022-08-21T05:44:23;14.60;99.90
26803;DHT22;14378;51.796;5.808;2022-08-21T05:46:24;14.60;99.90
26803;DHT22;14378;51.796;5.808;2022-08-21T05:48:26;14.60;99.90
26803;DHT22;14378;51.796;5.808;2022-08-21T05:50:27;14.60;99.90
26803;DHT22;14378;51.796;5.808;2022-08-21T05:52:28;14.70;99.90
26803;DHT22;14378;51.796;5.808;2022-08-21T05:54:29;14.80;99.90
26803;DHT22;14378;51.796;5.808;2022-08-21T05:56:32;14.80;99.90
26803;DHT22;14378;51.796;5.808;2022-08-21T05:58:33;14.80;99.90
26803;DHT22;14378;51.796;5.808;2022-08-21T06:00:34;14.90;99.90
26803;DHT22;14378;51.796;5.808;2022-08-21T06:02:35;14.90;99.90
26803;DHT22;14378;51.796;5.808;2022-08-21T06:04:38;14.90;99.90
26803;DHT22;14378;51.796;5.808;2022-08-21T06:06:39;15.00;99.90
26803;DHT22;14378;51.796;5.808;2022-08-21T06:08:43;15.00;99.90
26803;DHT22;14378;51.796;5.808;2022-08-21T06:10:44;15.10;99.90
26803;DHT22;14378;51.796;5.808;2022-08-21T06:12:45;15.10;99.90
26803;DHT22;14378;51.796;5.808;2022-08-21T06:14:46;15.10;99.90
26803;DHT22;14378;51.796;5.808;2022-08-21T06:16:47;15.20;99.90
26803;DHT22;14378;51.796;5.808;2022-08-21T06:18:49;15.20;99.90
26803;DHT22;14378;51.796;5.808;2022-08-21T06:20:50;15.30;99.90
26803;DHT22;14378;51.796;5.808;2022-08-21T06:22:51;15.30;99.90
26803;DHT22;14378;51.796;5.808;2022-08-21T06:24:52;15.40;99.90
26803;DHT22;14378;51.796;5.808;2022-08-21T06:26:54;15.50;99.90
26803;DHT22;14378;51.796;5.808;2022-08-21T06:28:55;15.50;99.90
26803;DHT22;14378;51.796;5.808;2022-08-21T06:30:56;15.60;99.90
26803;DHT22;14378;51.796;5.808;2022-08-21T06:32:57;15.60;99.90
26803;DHT22;14378;51.796;5.808;2022-08-21T06:34:58;15.60;99.90
26803;DHT22;14378;51.796;5.808;2022-08-21T06:36:59;15.70;99.90
26803;DHT22;14378;51.796;5.808;2022-08-21T06:39:00;15.70;99.90
26803;DHT22;14378;51.796;5.808;2022-08-21T06:41:02;15.80;99.90
26803;DHT22;14378;51.796;5.808;2022-08-21T06:43:09;15.90;99.90
26803;DHT22;14378;51.796;5.808;2022-08-21T06:45:10;15.90;99.90
26803;DHT22;14378;51.796;5.808;2022-08-21T06:47:11;16.00;99.90
26803;DHT22;14378;51.796;5.808;2022-08-21T06:49:12;16.10;99.90
26803;DHT22;14378;51.796;5.808;2022-08-21T06:51:13;16.20;99.90
26803;DHT22;14378;51.796;5.808;2022-08-21T06:53:17;16.20;99.90
26803;DHT22;14378;51.796;5.808;2022-08-21T06:55:18;16.30;99.90
26803;DHT22;14378;51.796;5.808;2022-08-21T06:57:19;16.50;99.90
26803;DHT22;14378;51.796;5.808;2022-08-21T06:59:20;16.50;99.90
26803;DHT22;14378;51.796;5.808;2022-08-21T07:01:25;16.50;99.90
26803;DHT22;14378;51.796;5.808;2022-08-21T07:03:29;16.60;99.90
26803;DHT22;14378;51.796;5.808;2022-08-21T07:05:32;16.70;99.90
26803;DHT22;14378;51.796;5.808;2022-08-21T07:07:33;16.90;99.90
26803;DHT22;14378;51.796;5.808;2022-08-21T07:09:34;16.90;99.90
26803;DHT22;14378;51.796;5.808;2022-08-21T07:11:35;17.00;99.90
26803;DHT22;14378;51.796;5.808;2022-08-21T07:13:37;17.10;99.90
26803;DHT22;14378;51.796;5.808;2022-08-21T07:15:38;17.20;99.90
26803;DHT22;14378;51.796;5.808;2022-08-21T07:17:40;17.30;99.90
26803;DHT22;14378;51.796;5.808;2022-08-21T07:19:41;17.40;99.90
26803;DHT22;14378;51.796;5.808;2022-08-21T07:21:42;17.50;99.90
26803;DHT22;14378;51.796;5.808;2022-08-21T07:23:46;17.60;99.90
26803;DHT22;14378;51.796;5.808;2022-08-21T07:25:48;17.70;99.90
26803;DHT22;14378;51.796;5.808;2022-08-21T07:27:48;17.80;99.90
26803;DHT22;14378;51.796;5.808;2022-08-21T07:29:49;17.80;99.90
26803;DHT22;14378;51.796;5.808;2022-08-21T07:31:50;17.90;99.90
26803;DHT22;14378;51.796;5.808;2022-08-21T07:33:52;18.00;99.90
26803;DHT22;14378;51.796;5.808;2022-08-21T07:35:54;18.00;99.90
26803;DHT22;14378;51.796;5.808;2022-08-21T07:37:55;18.10;99.90
26803;DHT22;14378;51.796;5.808;2022-08-21T07:39:56;18.10;99.90
26803;DHT22;14378;51.796;5.808;2022-08-21T07:41:58;18.20;99.90
26803;DHT22;14378;51.796;5.808;2022-08-21T07:43:59;18.30;99.90
26803;DHT22;14378;51.796;5.808;2022-08-21T07:46:11;18.50;99.90
26803;DHT22;14378;51.796;5.808;2022-08-21T07:48:13;18.60;99.90
26803;DHT22;14378;51.796;5.808;2022-08-21T07:50:15;18.80;99.90
26803;DHT22;14378;51.796;5.808;2022-08-21T07:52:17;18.90;99.90
26803;DHT22;14378;51.796;5.808;2022-08-21T07:54:18;19.10;99.90
26803;DHT22;14378;51.796;5.808;2022-08-21T07:56:19;19.20;99.90
26803;DHT22;14378;51.796;5.808;2022-08-21T07:58:23;19.30;99.90
26803;DHT22;14378;51.796;5.808;2022-08-21T08:00:25;19.40;99.90
26803;DHT22;14378;51.796;5.808;2022-08-21T08:02:29;19.50;99.90
26803;DHT22;14378;51.796;5.808;2022-08-21T08:04:32;19.60;99.90
26803;DHT22;14378;51.796;5.808;2022-08-21T08:06:33;19.60;99.90
26803;DHT22;14378;51.796;5.808;2022-08-21T08:08:34;19.70;99.90
26803;DHT22;14378;51.796;5.808;2022-08-21T08:10:36;19.70;99.90
26803;DHT22;14378;51.796;5.808;2022-08-21T08:12:40;19.80;99.90
26803;DHT22;14378;51.796;5.808;2022-08-21T08:14:42;19.90;99.90
26803;DHT22;14378;51.796;5.808;2022-08-21T08:16:43;20.00;99.90
26803;DHT22;14378;51.796;5.808;2022-08-21T08:18:45;20.00;99.90
26803;DHT22;14378;51.796;5.808;2022-08-21T08:20:45;20.00;99.90
26803;DHT22;14378;51.796;5.808;2022-08-21T08:22:47;20.10;99.90
26803;DHT22;14378;51.796;5.808;2022-08-21T08:24:48;20.20;99.90
26803;DHT22;14378;51.796;5.808;2022-08-21T08:26:49;20.20;99.90
26803;DHT22;14378;51.796;5.808;2022-08-21T08:28:50;20.30;99.90
26803;DHT22;14378;51.796;5.808;2022-08-21T08:30:51;20.40;99.90
26803;DHT22;14378;51.796;5.808;2022-08-21T08:32:52;20.40;99.90
26803;DHT22;14378;51.796;5.808;2022-08-21T08:34:53;20.50;99.90
26803;DHT22;14378;51.796;5.808;2022-08-21T08:36:55;20.70;99.90
26803;DHT22;14378;51.796;5.808;2022-08-21T08:38:58;20.80;99.90
26803;DHT22;14378;51.796;5.808;2022-08-21T08:41:19;20.90;99.90
26803;DHT22;14378;51.796;5.808;2022-08-21T08:43:28;21.00;99.90
26803;DHT22;14378;51.796;5.808;2022-08-21T08:45:32;21.20;99.90
26803;DHT22;14378;51.796;5.808;2022-08-21T08:47:40;21.30;99.90
26803;DHT22;14378;51.796;5.808;2022-08-21T08:49:53;21.30;99.90
26803;DHT22;14378;51.796;5.808;2022-08-21T08:52:03;21.30;99.90
26803;DHT22;14378;51.796;5.808;2022-08-21T08:54:11;21.40;99.90
26803;DHT22;14378;51.796;5.808;2022-08-21T08:56:13;21.50;99.90
26803;DHT22;14378;51.796;5.808;2022-08-21T08:58:29;21.50;99.90
26803;DHT22;14378;51.796;5.808;2022-08-21T09:00:33;21.60;99.90
26803;DHT22;14378;51.796;5.808;2022-08-21T09:02:34;21.70;99.90
26803;DHT22;14378;51.796;5.808;2022-08-21T09:04:36;21.90;99.90
26803;DHT22;14378;51.796;5.808;2022-08-21T09:23:46;22.70;99.90
26803;DHT22;14378;51.796;5.808;2022-08-21T09:26:02;22.80;99.90
26803;DHT22;14378;51.796;5.808;2022-08-21T09:28:08;23.00;99.90
26803;DHT22;14378;51.796;5.808;2022-08-21T09:30:12;23.20;99.90
26803;DHT22;14378;51.796;5.808;2022-08-21T09:32:22;23.40;99.90
26803;DHT22;14378;51.796;5.808;2022-08-21T09:34:29;23.60;99.90
26803;DHT22;14378;51.796;5.808;2022-08-21T09:36:47;23.60;99.90
26803;DHT22;14378;51.796;5.808;2022-08-21T09:38:53;23.70;99.90
26803;DHT22;14378;51.796;5.808;2022-08-21T09:40:59;23.70;99.90
26803;DHT22;14378;51.796;5.808;2022-08-21T09:45:17;24.00;99.90
26803;DHT22;14378;51.796;5.808;2022-08-21T09:47:19;24.10;99.90
26803;DHT22;14378;51.796;5.808;2022-08-21T09:49:38;24.20;99.90
26803;DHT22;14378;51.796;5.808;2022-08-21T09:51:50;24.20;99.90
26803;DHT22;14378;51.796;5.808;2022-08-21T09:54:15;24.30;99.90
26803;DHT22;14378;51.796;5.808;2022-08-21T09:56:33;24.30;99.90
26803;DHT22;14378;51.796;5.808;2022-08-21T09:58:53;24.40;99.90
26803;DHT22;14378;51.796;5.808;2022-08-21T10:00:59;24.30;99.90
26803;DHT22;14378;51.796;5.808;2022-08-21T10:03:16;24.50;99.90
26803;DHT22;14378;51.796;5.808;2022-08-21T10:05:23;24.80;99.90
26803;DHT22;14378;51.796;5.808;2022-08-21T10:07:28;24.90;99.90
26803;DHT22;14378;51.796;5.808;2022-08-21T10:09:29;25.00;99.90
26803;DHT22;14378;51.796;5.808;2022-08-21T10:11:32;25.20;99.90
26803;DHT22;14378;51.796;5.808;2022-08-21T10:18:20;25.70;99.90
26803;DHT22;14378;51.796;5.808;2022-08-21T10:20:29;25.70;99.90
26803;DHT22;14378;51.796;5.808;2022-08-21T10:23:10;25.50;99.90
26803;DHT22;14378;51.796;5.808;2022-08-21T10:25:21;25.50;99.90
26803;DHT22;14378;51.796;5.808;2022-08-21T10:34:24;26.10;99.90
26803;DHT22;14378;51.796;5.808;2022-08-21T10:36:52;26.40;99.90
26803;DHT22;14378;51.796;5.808;2022-08-21T10:43:45;26.70;99.90
26803;DHT22;14378;51.796;5.808;2022-08-21T10:48:36;27.10;99.90
26803;DHT22;14378;51.796;5.808;2022-08-21T10:50:51;27.10;98.30
26803;DHT22;14378;51.796;5.808;2022-08-21T10:58:10;26.50;97.80
26803;DHT22;14378;51.796;5.808;2022-08-21T11:00:19;26.60;98.60
26803;DHT22;14378;51.796;5.808;2022-08-21T11:02:41;26.70;98.20
26803;DHT22;14378;51.796;5.808;2022-08-21T11:07:02;26.90;97.50
26803;DHT22;14378;51.796;5.808;2022-08-21T11:09:15;26.70;96.20
26803;DHT22;14378;51.796;5.808;2022-08-21T11:11:36;26.50;97.10
26803;DHT22;14378;51.796;5.808;2022-08-21T11:14:01;26.50;97.50
26803;DHT22;14378;51.796;5.808;2022-08-21T11:20:32;26.80;96.70
26803;DHT22;14378;51.796;5.808;2022-08-21T11:22:46;26.70;96.70
26803;DHT22;14378;51.796;5.808;2022-08-21T11:29:38;27.00;98.00
26803;DHT22;14378;51.796;5.808;2022-08-21T11:34:04;27.60;97.20
26803;DHT22;14378;51.796;5.808;2022-08-21T11:38:31;27.50;95.20
26803;DHT22;14378;51.796;5.808;2022-08-21T11:40:44;27.70;96.20
26803;DHT22;14378;51.796;5.808;2022-08-21T11:43:20;28.10;96.90
26803;DHT22;14378;51.796;5.808;2022-08-21T11:45:33;28.50;95.50
26803;DHT22;14378;51.796;5.808;2022-08-21T11:47:54;28.70;95.80
26803;DHT22;14378;51.796;5.808;2022-08-21T11:50:45;28.50;92.70
26803;DHT22;14378;51.796;5.808;2022-08-21T11:52:37;28.10;93.70
26803;DHT22;14378;51.796;5.808;2022-08-21T11:54:46;28.00;94.20
26803;DHT22;14378;51.796;5.808;2022-08-21T11:56:55;28.20;95.10
26803;DHT22;14378;51.796;5.808;2022-08-21T11:59:16;28.20;93.30
26803;DHT22;14378;51.796;5.808;2022-08-21T12:01:25;28.30;93.40
26803;DHT22;14378;51.796;5.808;2022-08-21T12:03:35;28.40;94.10
26803;DHT22;14378;51.796;5.808;2022-08-21T12:05:40;28.30;93.50
26803;DHT22;14378;51.796;5.808;2022-08-21T12:07:43;28.30;94.90
26803;DHT22;14378;51.796;5.808;2022-08-21T12:09:56;28.60;96.10
26803;DHT22;14378;51.796;5.808;2022-08-21T12:12:12;29.00;96.50
26803;DHT22;14378;51.796;5.808;2022-08-21T12:14:17;29.30;96.40
26803;DHT22;14378;51.796;5.808;2022-08-21T12:16:32;29.50;96.80
26803;DHT22;14378;51.796;5.808;2022-08-21T12:18:33;29.70;95.30
26803;DHT22;14378;51.796;5.808;2022-08-21T12:22:54;29.80;93.60
26803;DHT22;14378;51.796;5.808;2022-08-21T12:25:16;29.50;91.30
26803;DHT22;14378;51.796;5.808;2022-08-21T12:27:30;29.60;92.10
26803;DHT22;14378;51.796;5.808;2022-08-21T12:29:47;29.60;91.30
26803;DHT22;14378;51.796;5.808;2022-08-21T12:34:01;29.20;91.80
26803;DHT22;14378;51.796;5.808;2022-08-21T12:36:11;29.20;92.70
26803;DHT22;14378;51.796;5.808;2022-08-21T12:41:10;29.30;91.70
26803;DHT22;14378;51.796;5.808;2022-08-21T12:43:47;29.30;92.20
26803;DHT22;14378;51.796;5.808;2022-08-21T12:45:50;29.20;91.30
26803;DHT22;14378;51.796;5.808;2022-08-21T12:48:18;29.30;91.20
26803;DHT22;14378;51.796;5.808;2022-08-21T12:52:55;29.20;88.70
26803;DHT22;14378;51.796;5.808;2022-08-21T12:54:59;29.00;90.80
26803;DHT22;14378;51.796;5.808;2022-08-21T12:57:06;29.00;91.30
26803;DHT22;14378;51.796;5.808;2022-08-21T12:59:12;28.90;91.10
26803;DHT22;14378;51.796;5.808;2022-08-21T13:03:18;29.00;92.20
26803;DHT22;14378;51.796;5.808;2022-08-21T13:05:39;29.30;92.80
26803;DHT22;14378;51.796;5.808;2022-08-21T13:07:46;29.50;92.40
26803;DHT22;14378;51.796;5.808;2022-08-21T13:09:52;29.50;90.90
26803;DHT22;14378;51.796;5.808;2022-08-21T13:11:55;29.30;88.70
26803;DHT22;14378;51.796;5.808;2022-08-21T13:13:57;29.30;90.90
26803;DHT22;14378;51.796;5.808;2022-08-21T13:16:04;29.20;91.90
26803;DHT22;14378;51.796;5.808;2022-08-21T13:18:06;29.20;91.60
26803;DHT22;14378;51.796;5.808;2022-08-21T13:21:02;29.20;92.30
26803;DHT22;14378;51.796;5.808;2022-08-21T13:22:43;29.10;92.30
26803;DHT22;14378;51.796;5.808;2022-08-21T13:24:49;28.90;89.70
26803;DHT22;14378;51.796;5.808;2022-08-21T13:26:51;28.80;91.60
26803;DHT22;14378;51.796;5.808;2022-08-21T13:28:53;28.90;92.70
26803;DHT22;14378;51.796;5.808;2022-08-21T13:30:57;29.00;93.70
26803;DHT22;14378;51.796;5.808;2022-08-21T13:33:01;29.00;91.60
26803;DHT22;14378;51.796;5.808;2022-08-21T13:35:21;29.00;91.40
26803;DHT22;14378;51.796;5.808;2022-08-21T13:37:23;28.90;91.40
26803;DHT22;14378;51.796;5.808;2022-08-21T13:39:26;28.90;92.10
26803;DHT22;14378;51.796;5.808;2022-08-21T13:41:31;29.00;91.70
26803;DHT22;14378;51.796;5.808;2022-08-21T13:43:36;29.30;91.70
26803;DHT22;14378;51.796;5.808;2022-08-21T13:45:37;29.20;88.50
26803;DHT22;14378;51.796;5.808;2022-08-21T13:47:38;29.10;90.20
26803;DHT22;14378;51.796;5.808;2022-08-21T13:49:52;29.20;90.80
26803;DHT22;14378;51.796;5.808;2022-08-21T13:51:56;29.40;90.00
26803;DHT22;14378;51.796;5.808;2022-08-21T13:53:57;29.70;89.30
26803;DHT22;14378;51.796;5.808;2022-08-21T13:56:00;30.00;91.90
26803;DHT22;14378;51.796;5.808;2022-08-21T13:58:04;30.20;91.20
26803;DHT22;14378;51.796;5.808;2022-08-21T14:02:21;30.50;92.10
26803;DHT22;14378;51.796;5.808;2022-08-21T14:06:32;30.70;90.50
26803;DHT22;14378;51.796;5.808;2022-08-21T14:08:37;30.70;86.70
26803;DHT22;14378;51.796;5.808;2022-08-21T14:10:49;30.70;88.80
26803;DHT22;14378;51.796;5.808;2022-08-21T14:12:57;30.40;83.50
26803;DHT22;14378;51.796;5.808;2022-08-21T14:15:03;30.20;86.40
26803;DHT22;14378;51.796;5.808;2022-08-21T14:17:09;29.80;84.60
26803;DHT22;14378;51.796;5.808;2022-08-21T14:19:20;29.60;86.70
26803;DHT22;14378;51.796;5.808;2022-08-21T14:21:34;29.30;86.00
26803;DHT22;14378;51.796;5.808;2022-08-21T14:23:36;29.10;84.90
26803;DHT22;14378;51.796;5.808;2022-08-21T14:25:42;28.90;85.90
26803;DHT22;14378;51.796;5.808;2022-08-21T14:30:44;28.20;86.30